sensor_id;sensor_type;location;lat;lon;timestamp;P1;durP1;ratioP1;P2;durP2;ratioP2
84818;SDS011;75053;51.080;13.712;2023-12-29T00:00:39;4.05;;;2.03;;
84818;SDS011;75053;51.080;13.712;2023-12-29T00:03:04;3.70;;;2.28;;
84818;SDS011;75053;51.080;13.712;2023-12-29T00:05:30;6.38;;;1.77;;
84818;SDS011;75053;51.080;13.712;2023-12-29T00:07:55;2.08;;;1.60;;
84818;SDS011;75053;51.080;13.712;2023-12-29T00:10:21;4.85;;;1.80;;
84818;SDS011;75053;51.080;13.712;2023-12-29T00:12:46;5.85;;;2.03;;
84818;SDS011;75053;51.080;13.712;2023-12-29T00:15:12;4.38;;;1.88;;
84818;SDS011;75053;51.080;13.712;2023-12-29T00:17:37;7.35;;;2.22;;
84818;SDS011;75053;51.080;13.712;2023-12-29T00:20:14;2.30;;;1.70;;
84818;SDS011;75053;51.080;13.712;2023-12-29T00:22:40;2.25;;;1.35;;
84818;SDS011;75053;51.080;13.712;2023-12-29T00:25:05;6.20;;;2.00;;
84818;SDS011;75053;51.080;13.712;2023-12-29T00:27:35;4.97;;;1.77;;
84818;SDS011;75053;51.080;13.712;2023-12-29T00:30:00;4.63;;;1.20;;
84818;SDS011;75053;51.080;13.712;2023-12-29T00:32:26;2.65;;;1.70;;
84818;SDS011;75053;51.080;13.712;2023-12-29T00:34:51;2.70;;;1.70;;
84818;SDS011;75053;51.080;13.712;2023-12-29T00:37:17;4.88;;;1.60;;
84818;SDS011;75053;51.080;13.712;2023-12-29T00:39:42;4.32;;;1.40;;
84818;SDS011;75053;51.080;13.712;2023-12-29T00:42:09;1.70;;;1.30;;
84818;SDS011;75053;51.080;13.712;2023-12-29T00:44:43;2.30;;;1.50;;
84818;SDS011;75053;51.080;13.712;2023-12-29T00:47:09;2.92;;;1.92;;
84818;SDS011;75053;51.080;13.712;2023-12-29T00:49:37;2.03;;;1.30;;
84818;SDS011;75053;51.080;13.712;2023-12-29T00:52:04;1.63;;;1.38;;
84818;SDS011;75053;51.080;13.712;2023-12-29T00:54:29;2.58;;;1.50;;
84818;SDS011;75053;51.080;13.712;2023-12-29T00:56:56;1.48;;;1.15;;
84818;SDS011;75053;51.080;13.712;2023-12-29T00:59:22;2.10;;;1.50;;
84818;SDS011;75053;51.080;13.712;2023-12-29T01:01:47;3.42;;;1.40;;
84818;SDS011;75053;51.080;13.712;2023-12-29T01:04:12;1.60;;;1.35;;
84818;SDS011;75053;51.080;13.712;2023-12-29T01:06:38;1.10;;;1.10;;
84818;SDS011;75053;51.080;13.712;2023-12-29T01:11:41;1.02;;;0.90;;
84818;SDS011;75053;51.080;13.712;2023-12-29T01:14:07;3.05;;;1.65;;
84818;SDS011;75053;51.080;13.712;2023-12-29T01:16:32;1.58;;;1.10;;
84818;SDS011;75053;51.080;13.712;2023-12-29T01:18:58;1.55;;;0.77;;
84818;SDS011;75053;51.080;13.712;2023-12-29T01:21:23;4.88;;;1.27;;
84818;SDS011;75053;51.080;13.712;2023-12-29T01:23:51;2.78;;;0.88;;
84818;SDS011;75053;51.080;13.712;2023-12-29T01:26:17;2.22;;;1.02;;
84818;SDS011;75053;51.080;13.712;2023-12-29T01:28:42;1.50;;;1.13;;
84818;SDS011;75053;51.080;13.712;2023-12-29T01:31:10;1.30;;;1.20;;
84818;SDS011;75053;51.080;13.712;2023-12-29T01:33:38;1.48;;;1.08;;
84818;SDS011;75053;51.080;13.712;2023-12-29T01:36:04;2.15;;;1.45;;
84818;SDS011;75053;51.080;13.712;2023-12-29T01:38:29;3.13;;;1.42;;
84818;SDS011;75053;51.080;13.712;2023-12-29T01:40:56;1.27;;;1.17;;
84818;SDS011;75053;51.080;13.712;2023-12-29T01:43:22;2.38;;;0.77;;
84818;SDS011;75053;51.080;13.712;2023-12-29T01:45:49;0.75;;;0.75;;
84818;SDS011;75053;51.080;13.712;2023-12-29T01:48:14;3.20;;;1.00;;
84818;SDS011;75053;51.080;13.712;2023-12-29T01:50:40;2.20;;;1.00;;
84818;SDS011;75053;51.080;13.712;2023-12-29T01:53:05;0.82;;;0.68;;
84818;SDS011;75053;51.080;13.712;2023-12-29T01:55:32;0.80;;;0.80;;
84818;SDS011;75053;51.080;13.712;2023-12-29T01:57:58;1.17;;;0.68;;
84818;SDS011;75053;51.080;13.712;2023-12-29T02:00:24;2.60;;;1.15;;
84818;SDS011;75053;51.080;13.712;2023-12-29T02:02:51;0.60;;;0.60;;
84818;SDS011;75053;51.080;13.712;2023-12-29T02:05:17;0.82;;;0.77;;
84818;SDS011;75053;51.080;13.712;2023-12-29T02:07:51;0.88;;;0.70;;
84818;SDS011;75053;51.080;13.712;2023-12-29T02:10:18;0.52;;;0.52;;
84818;SDS011;75053;51.080;13.712;2023-12-29T02:12:45;0.70;;;0.70;;
84818;SDS011;75053;51.080;13.712;2023-12-29T02:15:13;1.60;;;1.02;;
84818;SDS011;75053;51.080;13.712;2023-12-29T02:17:46;1.10;;;0.63;;
84818;SDS011;75053;51.080;13.712;2023-12-29T02:20:20;0.82;;;0.82;;
84818;SDS011;75053;51.080;13.712;2023-12-29T02:22:46;0.65;;;0.63;;
84818;SDS011;75053;51.080;13.712;2023-12-29T02:25:12;1.20;;;1.10;;
84818;SDS011;75053;51.080;13.712;2023-12-29T02:32:47;1.38;;;0.60;;
84818;SDS011;75053;51.080;13.712;2023-12-29T02:35:17;0.85;;;0.85;;
84818;SDS011;75053;51.080;13.712;2023-12-29T02:37:47;1.35;;;0.63;;
84818;SDS011;75053;51.080;13.712;2023-12-29T02:40:14;0.73;;;0.73;;
84818;SDS011;75053;51.080;13.712;2023-12-29T02:42:44;1.15;;;0.57;;
84818;SDS011;75053;51.080;13.712;2023-12-29T02:45:14;0.85;;;0.60;;
84818;SDS011;75053;51.080;13.712;2023-12-29T02:47:40;0.40;;;0.40;;
84818;SDS011;75053;51.080;13.712;2023-12-29T02:50:07;0.80;;;0.57;;
84818;SDS011;75053;51.080;13.712;2023-12-29T02:52:33;0.47;;;0.40;;
84818;SDS011;75053;51.080;13.712;2023-12-29T02:55:00;0.95;;;0.50;;
84818;SDS011;75053;51.080;13.712;2023-12-29T02:57:26;0.40;;;0.40;;
84818;SDS011;75053;51.080;13.712;2023-12-29T02:59:51;0.50;;;0.50;;
84818;SDS011;75053;51.080;13.712;2023-12-29T03:02:17;3.13;;;0.73;;
84818;SDS011;75053;51.080;13.712;2023-12-29T03:04:42;0.50;;;0.50;;
84818;SDS011;75053;51.080;13.712;2023-12-29T03:07:08;1.10;;;0.88;;
84818;SDS011;75053;51.080;13.712;2023-12-29T03:09:34;0.40;;;0.40;;
84818;SDS011;75053;51.080;13.712;2023-12-29T03:12:00;1.42;;;0.75;;
84818;SDS011;75053;51.080;13.712;2023-12-29T03:14:27;0.55;;;0.55;;
84818;SDS011;75053;51.080;13.712;2023-12-29T03:16:54;0.40;;;0.40;;
84818;SDS011;75053;51.080;13.712;2023-12-29T03:19:20;0.52;;;0.52;;
84818;SDS011;75053;51.080;13.712;2023-12-29T03:21:45;0.68;;;0.40;;
84818;SDS011;75053;51.080;13.712;2023-12-29T03:24:11;0.45;;;0.45;;
84818;SDS011;75053;51.080;13.712;2023-12-29T03:26:37;0.57;;;0.57;;
84818;SDS011;75053;51.080;13.712;2023-12-29T03:29:03;0.55;;;0.40;;
84818;SDS011;75053;51.080;13.712;2023-12-29T03:31:30;0.45;;;0.32;;
84818;SDS011;75053;51.080;13.712;2023-12-29T03:33:56;0.43;;;0.43;;
84818;SDS011;75053;51.080;13.712;2023-12-29T03:36:22;0.38;;;0.38;;
84818;SDS011;75053;51.080;13.712;2023-12-29T03:38:49;1.40;;;0.65;;
84818;SDS011;75053;51.080;13.712;2023-12-29T03:41:15;0.43;;;0.38;;
84818;SDS011;75053;51.080;13.712;2023-12-29T03:43:40;0.50;;;0.50;;
84818;SDS011;75053;51.080;13.712;2023-12-29T03:46:20;0.50;;;0.30;;
84818;SDS011;75053;51.080;13.712;2023-12-29T03:48:47;1.27;;;0.45;;
84818;SDS011;75053;51.080;13.712;2023-12-29T03:51:14;0.38;;;0.38;;
84818;SDS011;75053;51.080;13.712;2023-12-29T03:53:41;0.88;;;0.68;;
84818;SDS011;75053;51.080;13.712;2023-12-29T03:56:07;0.55;;;0.55;;
84818;SDS011;75053;51.080;13.712;2023-12-29T03:58:37;1.08;;;0.68;;
84818;SDS011;75053;51.080;13.712;2023-12-29T04:01:02;0.90;;;0.60;;
84818;SDS011;75053;51.080;13.712;2023-12-29T04:03:29;0.40;;;0.40;;
84818;SDS011;75053;51.080;13.712;2023-12-29T04:05:55;0.50;;;0.50;;
84818;SDS011;75053;51.080;13.712;2023-12-29T04:08:20;0.98;;;0.55;;
84818;SDS011;75053;51.080;13.712;2023-12-29T04:10:46;0.30;;;0.30;;
84818;SDS011;75053;51.080;13.712;2023-12-29T04:13:12;0.57;;;0.57;;
84818;SDS011;75053;51.080;13.712;2023-12-29T04:15:38;0.75;;;0.43;;
84818;SDS011;75053;51.080;13.712;2023-12-29T04:18:03;1.95;;;0.50;;
84818;SDS011;75053;51.080;13.712;2023-12-29T04:20:30;0.38;;;0.38;;
84818;SDS011;75053;51.080;13.712;2023-12-29T04:22:56;1.40;;;0.30;;
84818;SDS011;75053;51.080;13.712;2023-12-29T04:25:23;1.70;;;0.40;;
84818;SDS011;75053;51.080;13.712;2023-12-29T04:27:48;2.17;;;0.30;;
84818;SDS011;75053;51.080;13.712;2023-12-29T04:30:14;0.35;;;0.35;;
84818;SDS011;75053;51.080;13.712;2023-12-29T04:32:40;0.10;;;0.10;;
84818;SDS011;75053;51.080;13.712;2023-12-29T04:35:05;0.40;;;0.40;;
84818;SDS011;75053;51.080;13.712;2023-12-29T04:37:31;1.02;;;0.30;;
84818;SDS011;75053;51.080;13.712;2023-12-29T04:39:57;0.47;;;0.40;;
84818;SDS011;75053;51.080;13.712;2023-12-29T04:42:22;0.30;;;0.30;;
84818;SDS011;75053;51.080;13.712;2023-12-29T04:44:48;0.30;;;0.30;;
84818;SDS011;75053;51.080;13.712;2023-12-29T04:47:15;1.23;;;0.45;;
84818;SDS011;75053;51.080;13.712;2023-12-29T04:49:42;0.25;;;0.25;;
84818;SDS011;75053;51.080;13.712;2023-12-29T04:52:10;0.28;;;0.28;;
84818;SDS011;75053;51.080;13.712;2023-12-29T04:54:35;0.13;;;0.13;;
84818;SDS011;75053;51.080;13.712;2023-12-29T04:57:00;0.32;;;0.32;;
84818;SDS011;75053;51.080;13.712;2023-12-29T04:59:26;0.32;;;0.32;;
84818;SDS011;75053;51.080;13.712;2023-12-29T05:01:53;0.35;;;0.30;;
84818;SDS011;75053;51.080;13.712;2023-12-29T05:04:19;1.55;;;0.45;;
84818;SDS011;75053;51.080;13.712;2023-12-29T05:06:44;2.72;;;0.40;;
84818;SDS011;75053;51.080;13.712;2023-12-29T05:09:10;0.50;;;0.20;;
84818;SDS011;75053;51.080;13.712;2023-12-29T05:11:36;0.30;;;0.30;;
84818;SDS011;75053;51.080;13.712;2023-12-29T05:14:01;0.30;;;0.30;;
84818;SDS011;75053;51.080;13.712;2023-12-29T05:16:29;0.30;;;0.30;;
84818;SDS011;75053;51.080;13.712;2023-12-29T05:18:55;0.30;;;0.30;;
84818;SDS011;75053;51.080;13.712;2023-12-29T05:21:20;2.80;;;0.40;;
84818;SDS011;75053;51.080;13.712;2023-12-29T05:23:46;0.30;;;0.30;;
84818;SDS011;75053;51.080;13.712;2023-12-29T05:26:18;0.10;;;0.10;;
84818;SDS011;75053;51.080;13.712;2023-12-29T05:28:45;0.45;;;0.20;;
84818;SDS011;75053;51.080;13.712;2023-12-29T05:31:11;0.25;;;0.25;;
84818;SDS011;75053;51.080;13.712;2023-12-29T05:33:44;0.30;;;0.20;;
84818;SDS011;75053;51.080;13.712;2023-12-29T05:36:15;0.28;;;0.28;;
84818;SDS011;75053;51.080;13.712;2023-12-29T05:38:42;0.30;;;0.30;;
84818;SDS011;75053;51.080;13.712;2023-12-29T05:41:12;0.30;;;0.30;;
84818;SDS011;75053;51.080;13.712;2023-12-29T05:43:39;0.30;;;0.30;;
84818;SDS011;75053;51.080;13.712;2023-12-29T05:46:10;0.30;;;0.30;;
84818;SDS011;75053;51.080;13.712;2023-12-29T05:48:37;0.30;;;0.20;;
84818;SDS011;75053;51.080;13.712;2023-12-29T05:51:10;0.20;;;0.20;;
84818;SDS011;75053;51.080;13.712;2023-12-29T05:53:39;0.20;;;0.20;;
84818;SDS011;75053;51.080;13.712;2023-12-29T05:56:04;0.65;;;0.13;;
84818;SDS011;75053;51.080;13.712;2023-12-29T05:58:31;3.92;;;0.40;;
84818;SDS011;75053;51.080;13.712;2023-12-29T06:00:56;0.40;;;0.40;;
84818;SDS011;75053;51.080;13.712;2023-12-29T06:03:23;0.20;;;0.20;;
84818;SDS011;75053;51.080;13.712;2023-12-29T06:05:55;0.30;;;0.30;;
84818;SDS011;75053;51.080;13.712;2023-12-29T06:08:20;0.30;;;0.30;;
84818;SDS011;75053;51.080;13.712;2023-12-29T06:10:47;1.02;;;0.25;;
84818;SDS011;75053;51.080;13.712;2023-12-29T06:13:13;2.05;;;0.17;;
84818;SDS011;75053;51.080;13.712;2023-12-29T06:15:40;0.10;;;0.10;;
84818;SDS011;75053;51.080;13.712;2023-12-29T06:18:06;0.32;;;0.25;;
84818;SDS011;75053;51.080;13.712;2023-12-29T06:20:32;0.20;;;0.17;;
84818;SDS011;75053;51.080;13.712;2023-12-29T06:22:59;0.20;;;0.20;;
84818;SDS011;75053;51.080;13.712;2023-12-29T06:25:27;0.15;;;0.15;;
84818;SDS011;75053;51.080;13.712;2023-12-29T06:27:53;0.55;;;0.20;;
84818;SDS011;75053;51.080;13.712;2023-12-29T06:30:19;0.20;;;0.20;;
84818;SDS011;75053;51.080;13.712;2023-12-29T06:32:46;0.10;;;0.10;;
84818;SDS011;75053;51.080;13.712;2023-12-29T06:35:12;0.30;;;0.30;;
84818;SDS011;75053;51.080;13.712;2023-12-29T06:37:42;0.30;;;0.30;;
84818;SDS011;75053;51.080;13.712;2023-12-29T06:40:07;0.10;;;0.10;;
84818;SDS011;75053;51.080;13.712;2023-12-29T06:42:33;0.20;;;0.20;;
84818;SDS011;75053;51.080;13.712;2023-12-29T06:45:04;0.65;;;0.10;;
84818;SDS011;75053;51.080;13.712;2023-12-29T06:47:36;0.95;;;0.20;;
84818;SDS011;75053;51.080;13.712;2023-12-29T06:50:01;0.15;;;0.10;;
84818;SDS011;75053;51.080;13.712;2023-12-29T06:52:28;0.10;;;0.10;;
84818;SDS011;75053;51.080;13.712;2023-12-29T06:54:59;0.30;;;0.20;;
84818;SDS011;75053;51.080;13.712;2023-12-29T06:57:28;0.10;;;0.10;;
84818;SDS011;75053;51.080;13.712;2023-12-29T06:59:53;0.10;;;0.10;;
84818;SDS011;75053;51.080;13.712;2023-12-29T07:02:18;0.25;;;0.10;;
84818;SDS011;75053;51.080;13.712;2023-12-29T07:04:44;2.35;;;0.20;;
84818;SDS011;75053;51.080;13.712;2023-12-29T07:07:09;0.10;;;0.10;;
84818;SDS011;75053;51.080;13.712;2023-12-29T07:09:37;0.10;;;0.10;;
84818;SDS011;75053;51.080;13.712;2023-12-29T07:12:04;0.20;;;0.20;;
84818;SDS011;75053;51.080;13.712;2023-12-29T07:14:30;0.10;;;0.10;;
84818;SDS011;75053;51.080;13.712;2023-12-29T07:16:56;0.20;;;0.20;;
84818;SDS011;75053;51.080;13.712;2023-12-29T07:19:23;0.10;;;0.10;;
84818;SDS011;75053;51.080;13.712;2023-12-29T07:21:48;0.10;;;0.10;;
84818;SDS011;75053;51.080;13.712;2023-12-29T07:24:14;0.20;;;0.20;;
84818;SDS011;75053;51.080;13.712;2023-12-29T07:26:40;0.43;;;0.20;;
84818;SDS011;75053;51.080;13.712;2023-12-29T07:29:05;0.10;;;0.10;;
84818;SDS011;75053;51.080;13.712;2023-12-29T07:31:31;0.50;;;0.28;;
84818;SDS011;75053;51.080;13.712;2023-12-29T07:33:56;3.75;;;0.10;;
84818;SDS011;75053;51.080;13.712;2023-12-29T07:36:24;0.20;;;0.10;;
84818;SDS011;75053;51.080;13.712;2023-12-29T07:38:51;0.20;;;0.20;;
84818;SDS011;75053;51.080;13.712;2023-12-29T07:41:16;0.30;;;0.10;;
84818;SDS011;75053;51.080;13.712;2023-12-29T07:43:44;0.10;;;0.10;;
84818;SDS011;75053;51.080;13.712;2023-12-29T07:49:13;1.27;;;0.20;;
84818;SDS011;75053;51.080;13.712;2023-12-29T07:51:40;0.17;;;0.10;;
84818;SDS011;75053;51.080;13.712;2023-12-29T07:54:08;0.45;;;0.10;;
84818;SDS011;75053;51.080;13.712;2023-12-29T07:56:35;0.20;;;0.20;;
84818;SDS011;75053;51.080;13.712;2023-12-29T07:59:02;1.20;;;0.20;;
84818;SDS011;75053;51.080;13.712;2023-12-29T08:01:30;0.15;;;0.13;;
84818;SDS011;75053;51.080;13.712;2023-12-29T08:03:55;1.65;;;0.30;;
84818;SDS011;75053;51.080;13.712;2023-12-29T08:06:22;0.28;;;0.20;;
84818;SDS011;75053;51.080;13.712;2023-12-29T08:08:48;0.30;;;0.10;;
84818;SDS011;75053;51.080;13.712;2023-12-29T08:11:14;1.45;;;0.10;;
84818;SDS011;75053;51.080;13.712;2023-12-29T08:13:43;0.10;;;0.10;;
84818;SDS011;75053;51.080;13.712;2023-12-29T08:16:13;1.75;;;0.10;;
84818;SDS011;75053;51.080;13.712;2023-12-29T08:18:39;0.85;;;0.10;;
84818;SDS011;75053;51.080;13.712;2023-12-29T08:21:05;0.20;;;0.20;;
84818;SDS011;75053;51.080;13.712;2023-12-29T08:23:31;0.45;;;0.10;;
84818;SDS011;75053;51.080;13.712;2023-12-29T08:25:57;0.25;;;0.22;;
84818;SDS011;75053;51.080;13.712;2023-12-29T08:28:23;2.78;;;0.10;;
84818;SDS011;75053;51.080;13.712;2023-12-29T08:30:49;1.08;;;0.17;;
84818;SDS011;75053;51.080;13.712;2023-12-29T08:33:15;0.20;;;0.20;;
84818;SDS011;75053;51.080;13.712;2023-12-29T08:35:41;0.85;;;0.20;;
84818;SDS011;75053;51.080;13.712;2023-12-29T08:38:08;0.10;;;0.10;;
84818;SDS011;75053;51.080;13.712;2023-12-29T08:40:35;0.85;;;0.20;;
84818;SDS011;75053;51.080;13.712;2023-12-29T08:43:01;0.40;;;0.20;;
84818;SDS011;75053;51.080;13.712;2023-12-29T08:45:36;0.43;;;0.30;;
84818;SDS011;75053;51.080;13.712;2023-12-29T08:48:03;1.02;;;0.20;;
84818;SDS011;75053;51.080;13.712;2023-12-29T08:50:32;2.28;;;0.40;;
84818;SDS011;75053;51.080;13.712;2023-12-29T08:52:58;0.32;;;0.10;;
84818;SDS011;75053;51.080;13.712;2023-12-29T08:55:23;2.58;;;0.20;;
84818;SDS011;75053;51.080;13.712;2023-12-29T08:57:51;1.65;;;0.10;;
84818;SDS011;75053;51.080;13.712;2023-12-29T09:00:26;0.52;;;0.10;;
84818;SDS011;75053;51.080;13.712;2023-12-29T09:02:52;0.40;;;0.20;;
84818;SDS011;75053;51.080;13.712;2023-12-29T09:05:18;0.20;;;0.10;;
84818;SDS011;75053;51.080;13.712;2023-12-29T09:07:46;2.22;;;0.38;;
84818;SDS011;75053;51.080;13.712;2023-12-29T09:10:17;1.05;;;0.20;;
84818;SDS011;75053;51.080;13.712;2023-12-29T09:12:46;0.10;;;0.10;;
84818;SDS011;75053;51.080;13.712;2023-12-29T09:15:11;0.38;;;0.10;;
84818;SDS011;75053;51.080;13.712;2023-12-29T09:17:37;1.45;;;0.15;;
84818;SDS011;75053;51.080;13.712;2023-12-29T09:20:04;0.10;;;0.10;;
84818;SDS011;75053;51.080;13.712;2023-12-29T09:22:31;0.20;;;0.20;;
84818;SDS011;75053;51.080;13.712;2023-12-29T09:24:56;4.35;;;0.45;;
84818;SDS011;75053;51.080;13.712;2023-12-29T09:27:22;0.80;;;0.10;;
84818;SDS011;75053;51.080;13.712;2023-12-29T09:29:47;0.35;;;0.17;;
84818;SDS011;75053;51.080;13.712;2023-12-29T09:32:13;0.10;;;0.10;;
84818;SDS011;75053;51.080;13.712;2023-12-29T09:34:38;0.10;;;0.10;;
84818;SDS011;75053;51.080;13.712;2023-12-29T09:37:04;0.82;;;0.10;;
84818;SDS011;75053;51.080;13.712;2023-12-29T09:39:29;0.20;;;0.20;;
84818;SDS011;75053;51.080;13.712;2023-12-29T09:41:57;0.63;;;0.20;;
84818;SDS011;75053;51.080;13.712;2023-12-29T09:44:25;0.13;;;0.13;;
84818;SDS011;75053;51.080;13.712;2023-12-29T09:46:53;0.52;;;0.10;;
84818;SDS011;75053;51.080;13.712;2023-12-29T09:49:21;2.92;;;0.22;;
84818;SDS011;75053;51.080;13.712;2023-12-29T09:51:48;0.15;;;0.15;;
84818;SDS011;75053;51.080;13.712;2023-12-29T09:54:14;0.10;;;0.10;;
84818;SDS011;75053;51.080;13.712;2023-12-29T09:56:40;0.40;;;0.20;;
84818;SDS011;75053;51.080;13.712;2023-12-29T09:59:08;2.20;;;0.20;;
84818;SDS011;75053;51.080;13.712;2023-12-29T10:01:36;0.47;;;0.20;;
84818;SDS011;75053;51.080;13.712;2023-12-29T10:04:02;12.93;;;0.75;;
84818;SDS011;75053;51.080;13.712;2023-12-29T10:06:31;0.77;;;0.70;;
84818;SDS011;75053;51.080;13.712;2023-12-29T10:09:01;2.03;;;0.90;;
84818;SDS011;75053;51.080;13.712;2023-12-29T10:11:33;0.40;;;0.40;;
84818;SDS011;75053;51.080;13.712;2023-12-29T10:14:01;2.40;;;0.60;;
84818;SDS011;75053;51.080;13.712;2023-12-29T10:21:56;0.50;;;0.22;;
84818;SDS011;75053;51.080;13.712;2023-12-29T10:24:33;1.17;;;0.20;;
84818;SDS011;75053;51.080;13.712;2023-12-29T10:27:00;0.50;;;0.32;;
84818;SDS011;75053;51.080;13.712;2023-12-29T10:29:26;1.98;;;0.35;;
84818;SDS011;75053;51.080;13.712;2023-12-29T10:31:52;0.57;;;0.45;;
84818;SDS011;75053;51.080;13.712;2023-12-29T10:36:59;1.38;;;0.65;;
84818;SDS011;75053;51.080;13.712;2023-12-29T10:39:33;0.52;;;0.40;;
84818;SDS011;75053;51.080;13.712;2023-12-29T10:42:06;1.98;;;0.40;;
84818;SDS011;75053;51.080;13.712;2023-12-29T10:44:34;0.45;;;0.38;;
84818;SDS011;75053;51.080;13.712;2023-12-29T10:47:12;0.45;;;0.35;;
84818;SDS011;75053;51.080;13.712;2023-12-29T10:49:40;3.10;;;0.77;;
84818;SDS011;75053;51.080;13.712;2023-12-29T10:52:12;3.83;;;0.40;;
84818;SDS011;75053;51.080;13.712;2023-12-29T10:54:39;1.02;;;0.40;;
84818;SDS011;75053;51.080;13.712;2023-12-29T10:57:04;2.75;;;0.63;;
84818;SDS011;75053;51.080;13.712;2023-12-29T10:59:30;0.98;;;0.50;;
84818;SDS011;75053;51.080;13.712;2023-12-29T11:01:56;1.05;;;0.43;;
84818;SDS011;75053;51.080;13.712;2023-12-29T11:04:22;1.45;;;0.52;;
84818;SDS011;75053;51.080;13.712;2023-12-29T11:06:49;3.15;;;0.55;;
84818;SDS011;75053;51.080;13.712;2023-12-29T11:09:28;1.65;;;0.50;;
84818;SDS011;75053;51.080;13.712;2023-12-29T11:11:58;0.52;;;0.52;;
84818;SDS011;75053;51.080;13.712;2023-12-29T11:14:25;0.50;;;0.50;;
84818;SDS011;75053;51.080;13.712;2023-12-29T11:16:51;1.40;;;0.55;;
84818;SDS011;75053;51.080;13.712;2023-12-29T11:19:19;1.30;;;0.77;;
84818;SDS011;75053;51.080;13.712;2023-12-29T11:21:46;1.95;;;0.43;;
84818;SDS011;75053;51.080;13.712;2023-12-29T11:24:13;0.40;;;0.30;;
84818;SDS011;75053;51.080;13.712;2023-12-29T11:26:39;1.08;;;0.50;;
84818;SDS011;75053;51.080;13.712;2023-12-29T11:29:07;1.20;;;0.50;;
84818;SDS011;75053;51.080;13.712;2023-12-29T11:31:33;1.88;;;0.35;;
84818;SDS011;75053;51.080;13.712;2023-12-29T11:34:05;1.63;;;0.55;;
84818;SDS011;75053;51.080;13.712;2023-12-29T11:36:43;1.27;;;0.30;;
84818;SDS011;75053;51.080;13.712;2023-12-29T11:42:02;0.82;;;0.40;;
84818;SDS011;75053;51.080;13.712;2023-12-29T11:44:44;0.50;;;0.50;;
84818;SDS011;75053;51.080;13.712;2023-12-29T11:50:26;0.80;;;0.38;;
84818;SDS011;75053;51.080;13.712;2023-12-29T11:53:02;0.52;;;0.40;;
84818;SDS011;75053;51.080;13.712;2023-12-29T11:55:46;1.65;;;0.52;;
84818;SDS011;75053;51.080;13.712;2023-12-29T11:58:24;1.30;;;0.63;;
84818;SDS011;75053;51.080;13.712;2023-12-29T12:00:53;1.10;;;0.47;;
84818;SDS011;75053;51.080;13.712;2023-12-29T12:03:26;3.13;;;0.68;;
84818;SDS011;75053;51.080;13.712;2023-12-29T12:05:54;0.98;;;0.57;;
84818;SDS011;75053;51.080;13.712;2023-12-29T12:10:54;0.52;;;0.43;;
84818;SDS011;75053;51.080;13.712;2023-12-29T12:16:09;1.92;;;0.30;;
84818;SDS011;75053;51.080;13.712;2023-12-29T12:18:34;1.13;;;0.63;;
84818;SDS011;75053;51.080;13.712;2023-12-29T12:21:00;0.47;;;0.20;;
84818;SDS011;75053;51.080;13.712;2023-12-29T12:23:28;1.15;;;0.60;;
84818;SDS011;75053;51.080;13.712;2023-12-29T12:25:58;0.38;;;0.30;;
84818;SDS011;75053;51.080;13.712;2023-12-29T12:28:26;5.68;;;1.30;;
84818;SDS011;75053;51.080;13.712;2023-12-29T12:30:51;5.50;;;1.20;;
84818;SDS011;75053;51.080;13.712;2023-12-29T12:33:18;2.70;;;0.73;;
84818;SDS011;75053;51.080;13.712;2023-12-29T12:35:44;0.82;;;0.73;;
84818;SDS011;75053;51.080;13.712;2023-12-29T12:38:14;10.10;;;1.67;;
84818;SDS011;75053;51.080;13.712;2023-12-29T12:40:46;16.08;;;3.75;;
84818;SDS011;75053;51.080;13.712;2023-12-29T12:43:15;7.78;;;2.67;;
84818;SDS011;75053;51.080;13.712;2023-12-29T12:45:42;7.50;;;2.17;;
84818;SDS011;75053;51.080;13.712;2023-12-29T12:48:23;12.35;;;1.35;;
84818;SDS011;75053;51.080;13.712;2023-12-29T12:50:53;5.97;;;1.50;;
84818;SDS011;75053;51.080;13.712;2023-12-29T12:53:21;16.15;;;2.45;;
84818;SDS011;75053;51.080;13.712;2023-12-29T12:55:48;4.38;;;1.00;;
84818;SDS011;75053;51.080;13.712;2023-12-29T12:58:15;4.65;;;1.23;;
84818;SDS011;75053;51.080;13.712;2023-12-29T13:00:42;2.92;;;1.00;;
84818;SDS011;75053;51.080;13.712;2023-12-29T13:03:07;5.68;;;1.80;;
84818;SDS011;75053;51.080;13.712;2023-12-29T13:05:35;2.63;;;1.25;;
84818;SDS011;75053;51.080;13.712;2023-12-29T13:08:01;2.25;;;0.70;;
84818;SDS011;75053;51.080;13.712;2023-12-29T13:10:28;2.58;;;0.88;;
84818;SDS011;75053;51.080;13.712;2023-12-29T13:12:56;3.70;;;0.85;;
84818;SDS011;75053;51.080;13.712;2023-12-29T13:15:21;2.67;;;0.85;;
84818;SDS011;75053;51.080;13.712;2023-12-29T13:17:51;1.25;;;0.80;;
84818;SDS011;75053;51.080;13.712;2023-12-29T13:20:17;2.17;;;0.70;;
84818;SDS011;75053;51.080;13.712;2023-12-29T13:22:46;2.92;;;0.77;;
84818;SDS011;75053;51.080;13.712;2023-12-29T13:25:15;1.77;;;0.80;;
84818;SDS011;75053;51.080;13.712;2023-12-29T13:27:44;1.02;;;0.82;;
84818;SDS011;75053;51.080;13.712;2023-12-29T13:30:10;1.88;;;0.40;;
84818;SDS011;75053;51.080;13.712;2023-12-29T13:32:37;0.88;;;0.55;;
84818;SDS011;75053;51.080;13.712;2023-12-29T13:35:11;0.60;;;0.60;;
84818;SDS011;75053;51.080;13.712;2023-12-29T13:37:46;3.42;;;0.50;;
84818;SDS011;75053;51.080;13.712;2023-12-29T13:42:50;1.80;;;0.52;;
84818;SDS011;75053;51.080;13.712;2023-12-29T13:45:22;0.43;;;0.43;;
84818;SDS011;75053;51.080;13.712;2023-12-29T13:47:49;1.55;;;0.60;;
84818;SDS011;75053;51.080;13.712;2023-12-29T13:50:15;2.33;;;0.35;;
84818;SDS011;75053;51.080;13.712;2023-12-29T13:52:40;0.50;;;0.50;;
84818;SDS011;75053;51.080;13.712;2023-12-29T13:55:06;0.35;;;0.32;;
84818;SDS011;75053;51.080;13.712;2023-12-29T13:57:32;0.40;;;0.40;;
84818;SDS011;75053;51.080;13.712;2023-12-29T14:02:39;2.40;;;0.43;;
84818;SDS011;75053;51.080;13.712;2023-12-29T14:05:12;0.52;;;0.52;;
84818;SDS011;75053;51.080;13.712;2023-12-29T14:07:43;0.30;;;0.30;;
84818;SDS011;75053;51.080;13.712;2023-12-29T14:10:13;2.58;;;0.70;;
84818;SDS011;75053;51.080;13.712;2023-12-29T14:12:38;1.00;;;0.40;;
84818;SDS011;75053;51.080;13.712;2023-12-29T14:15:04;0.63;;;0.63;;
84818;SDS011;75053;51.080;13.712;2023-12-29T14:17:30;2.80;;;0.40;;
84818;SDS011;75053;51.080;13.712;2023-12-29T14:19:58;0.30;;;0.30;;
84818;SDS011;75053;51.080;13.712;2023-12-29T14:22:29;0.88;;;0.32;;
84818;SDS011;75053;51.080;13.712;2023-12-29T14:25:01;1.42;;;0.40;;
84818;SDS011;75053;51.080;13.712;2023-12-29T14:27:29;0.63;;;0.50;;
84818;SDS011;75053;51.080;13.712;2023-12-29T14:29:55;0.65;;;0.20;;
84818;SDS011;75053;51.080;13.712;2023-12-29T14:32:20;0.68;;;0.30;;
84818;SDS011;75053;51.080;13.712;2023-12-29T14:34:51;0.40;;;0.35;;
84818;SDS011;75053;51.080;13.712;2023-12-29T14:37:20;2.55;;;0.35;;
84818;SDS011;75053;51.080;13.712;2023-12-29T14:39:49;6.40;;;0.50;;
84818;SDS011;75053;51.080;13.712;2023-12-29T14:42:15;4.68;;;0.47;;
84818;SDS011;75053;51.080;13.712;2023-12-29T14:44:41;2.38;;;0.40;;
84818;SDS011;75053;51.080;13.712;2023-12-29T14:47:06;5.47;;;0.60;;
84818;SDS011;75053;51.080;13.712;2023-12-29T14:49:32;0.98;;;0.60;;
84818;SDS011;75053;51.080;13.712;2023-12-29T14:51:57;3.63;;;0.65;;
84818;SDS011;75053;51.080;13.712;2023-12-29T14:54:22;3.60;;;0.43;;
84818;SDS011;75053;51.080;13.712;2023-12-29T14:56:48;1.58;;;0.65;;
84818;SDS011;75053;51.080;13.712;2023-12-29T14:59:13;2.53;;;0.63;;
84818;SDS011;75053;51.080;13.712;2023-12-29T15:01:39;1.05;;;0.30;;
84818;SDS011;75053;51.080;13.712;2023-12-29T15:04:04;3.75;;;0.60;;
84818;SDS011;75053;51.080;13.712;2023-12-29T15:06:30;4.72;;;1.73;;
84818;SDS011;75053;51.080;13.712;2023-12-29T15:08:55;4.55;;;0.40;;